sensor_id;sensor_type;location;lat;lon;timestamp;P1;durP1;ratioP1;P2;durP2;ratioP2
77038;SDS011;65970;50.476;4.840;2024-01-15T00:02:40;7.70;;;4.28;;
77038;SDS011;65970;50.476;4.840;2024-01-15T00:07:41;11.93;;;4.38;;
77038;SDS011;65970;50.476;4.840;2024-01-15T00:12:41;10.77;;;4.53;;
77038;SDS011;65970;50.476;4.840;2024-01-15T00:17:42;8.23;;;4.57;;
77038;SDS011;65970;50.476;4.840;2024-01-15T00:22:43;13.00;;;5.18;;
77038;SDS011;65970;50.476;4.840;2024-01-15T00:27:43;9.77;;;4.72;;
77038;SDS011;65970;50.476;4.840;2024-01-15T00:32:44;8.30;;;3.63;;
77038;SDS011;65970;50.476;4.840;2024-01-15T00:37:44;8.32;;;4.10;;
77038;SDS011;65970;50.476;4.840;2024-01-15T00:42:45;8.73;;;4.32;;
77038;SDS011;65970;50.476;4.840;2024-01-15T00:47:45;9.02;;;4.05;;
77038;SDS011;65970;50.476;4.840;2024-01-15T00:52:46;13.98;;;4.60;;
77038;SDS011;65970;50.476;4.840;2024-01-15T00:57:46;7.28;;;3.78;;
77038;SDS011;65970;50.476;4.840;2024-01-15T01:02:47;10.25;;;5.85;;
77038;SDS011;65970;50.476;4.840;2024-01-15T01:07:48;8.35;;;4.20;;
77038;SDS011;65970;50.476;4.840;2024-01-15T01:12:48;9.20;;;4.50;;
77038;SDS011;65970;50.476;4.840;2024-01-15T01:17:49;8.90;;;3.65;;
77038;SDS011;65970;50.476;4.840;2024-01-15T01:22:49;9.73;;;4.55;;
77038;SDS011;65970;50.476;4.840;2024-01-15T01:27:50;8.30;;;3.85;;
77038;SDS011;65970;50.476;4.840;2024-01-15T01:32:50;12.60;;;4.95;;
77038;SDS011;65970;50.476;4.840;2024-01-15T01:37:51;7.57;;;3.75;;
77038;SDS011;65970;50.476;4.840;2024-01-15T01:42:51;9.27;;;3.50;;
77038;SDS011;65970;50.476;4.840;2024-01-15T01:47:52;4.93;;;2.97;;
77038;SDS011;65970;50.476;4.840;2024-01-15T01:52:53;4.97;;;3.75;;
77038;SDS011;65970;50.476;4.840;2024-01-15T01:57:54;6.38;;;2.60;;
77038;SDS011;65970;50.476;4.840;2024-01-15T02:02:55;8.52;;;3.78;;
77038;SDS011;65970;50.476;4.840;2024-01-15T02:07:55;5.25;;;3.05;;
77038;SDS011;65970;50.476;4.840;2024-01-15T02:12:56;9.65;;;4.45;;
77038;SDS011;65970;50.476;4.840;2024-01-15T02:17:58;6.07;;;3.53;;
77038;SDS011;65970;50.476;4.840;2024-01-15T02:23:09;7.07;;;3.03;;
77038;SDS011;65970;50.476;4.840;2024-01-15T02:28:16;6.35;;;3.22;;
77038;SDS011;65970;50.476;4.840;2024-01-15T02:33:17;10.75;;;4.00;;
77038;SDS011;65970;50.476;4.840;2024-01-15T02:38:18;6.45;;;3.00;;
77038;SDS011;65970;50.476;4.840;2024-01-15T02:43:19;7.30;;;3.67;;
77038;SDS011;65970;50.476;4.840;2024-01-15T02:48:19;6.97;;;3.47;;
77038;SDS011;65970;50.476;4.840;2024-01-15T02:53:20;6.97;;;4.18;;
77038;SDS011;65970;50.476;4.840;2024-01-15T02:58:21;8.02;;;5.00;;
77038;SDS011;65970;50.476;4.840;2024-01-15T03:03:22;8.38;;;4.88;;
77038;SDS011;65970;50.476;4.840;2024-01-15T03:08:22;9.82;;;4.82;;
77038;SDS011;65970;50.476;4.840;2024-01-15T03:13:23;7.28;;;4.47;;
77038;SDS011;65970;50.476;4.840;2024-01-15T03:18:23;8.32;;;3.83;;
77038;SDS011;65970;50.476;4.840;2024-01-15T03:23:24;10.98;;;3.42;;
77038;SDS011;65970;50.476;4.840;2024-01-15T03:28:24;11.20;;;4.75;;
77038;SDS011;65970;50.476;4.840;2024-01-15T03:33:25;6.45;;;4.82;;
77038;SDS011;65970;50.476;4.840;2024-01-15T03:38:27;7.47;;;3.55;;
77038;SDS011;65970;50.476;4.840;2024-01-15T03:43:28;8.05;;;3.65;;
77038;SDS011;65970;50.476;4.840;2024-01-15T03:48:29;6.00;;;4.05;;
77038;SDS011;65970;50.476;4.840;2024-01-15T03:53:29;6.10;;;3.03;;
77038;SDS011;65970;50.476;4.840;2024-01-15T03:58:30;9.75;;;4.03;;
77038;SDS011;65970;50.476;4.840;2024-01-15T04:03:30;7.65;;;4.35;;
77038;SDS011;65970;50.476;4.840;2024-01-15T04:08:31;7.47;;;3.78;;
77038;SDS011;65970;50.476;4.840;2024-01-15T04:13:32;7.50;;;3.10;;
77038;SDS011;65970;50.476;4.840;2024-01-15T04:18:33;7.40;;;4.32;;
77038;SDS011;65970;50.476;4.840;2024-01-15T04:23:33;8.00;;;3.50;;
77038;SDS011;65970;50.476;4.840;2024-01-15T04:28:34;10.48;;;3.88;;
77038;SDS011;65970;50.476;4.840;2024-01-15T04:33:34;9.63;;;4.28;;
77038;SDS011;65970;50.476;4.840;2024-01-15T04:38:35;5.93;;;3.17;;
77038;SDS011;65970;50.476;4.840;2024-01-15T04:43:35;5.22;;;2.97;;
77038;SDS011;65970;50.476;4.840;2024-01-15T04:48:36;7.25;;;4.28;;
77038;SDS011;65970;50.476;4.840;2024-01-15T04:53:37;6.35;;;2.88;;
77038;SDS011;65970;50.476;4.840;2024-01-15T04:58:37;7.28;;;3.22;;
77038;SDS011;65970;50.476;4.840;2024-01-15T05:03:38;5.45;;;3.65;;
77038;SDS011;65970;50.476;4.840;2024-01-15T05:08:38;9.52;;;3.72;;
77038;SDS011;65970;50.476;4.840;2024-01-15T05:13:39;3.97;;;2.92;;
77038;SDS011;65970;50.476;4.840;2024-01-15T05:18:39;3.90;;;2.42;;
77038;SDS011;65970;50.476;4.840;2024-01-15T05:23:40;3.08;;;2.53;;
77038;SDS011;65970;50.476;4.840;2024-01-15T05:28:41;6.75;;;3.85;;
77038;SDS011;65970;50.476;4.840;2024-01-15T05:33:41;9.40;;;4.28;;
77038;SDS011;65970;50.476;4.840;2024-01-15T05:38:42;6.32;;;4.10;;
77038;SDS011;65970;50.476;4.840;2024-01-15T05:43:42;6.25;;;3.75;;
77038;SDS011;65970;50.476;4.840;2024-01-15T05:48:43;10.60;;;4.10;;
77038;SDS011;65970;50.476;4.840;2024-01-15T05:53:43;7.10;;;3.72;;
77038;SDS011;65970;50.476;4.840;2024-01-15T05:58:44;6.68;;;4.07;;
77038;SDS011;65970;50.476;4.840;2024-01-15T06:03:45;9.45;;;4.75;;
77038;SDS011;65970;50.476;4.840;2024-01-15T06:08:45;7.93;;;4.22;;
77038;SDS011;65970;50.476;4.840;2024-01-15T06:13:46;11.05;;;4.43;;
77038;SDS011;65970;50.476;4.840;2024-01-15T06:18:46;8.38;;;5.18;;
77038;SDS011;65970;50.476;4.840;2024-01-15T06:23:47;7.70;;;4.18;;
77038;SDS011;65970;50.476;4.840;2024-01-15T06:28:47;8.15;;;4.10;;
77038;SDS011;65970;50.476;4.840;2024-01-15T06:33:48;9.05;;;4.63;;
77038;SDS011;65970;50.476;4.840;2024-01-15T06:38:48;9.63;;;4.88;;
77038;SDS011;65970;50.476;4.840;2024-01-15T06:43:49;6.22;;;3.45;;
77038;SDS011;65970;50.476;4.840;2024-01-15T06:48:49;5.88;;;3.70;;
77038;SDS011;65970;50.476;4.840;2024-01-15T06:53:50;10.50;;;4.80;;
77038;SDS011;65970;50.476;4.840;2024-01-15T06:58:51;5.90;;;3.65;;
77038;SDS011;65970;50.476;4.840;2024-01-15T07:03:51;7.82;;;4.47;;
77038;SDS011;65970;50.476;4.840;2024-01-15T07:08:52;6.80;;;4.15;;
77038;SDS011;65970;50.476;4.840;2024-01-15T07:13:52;4.47;;;4.05;;
77038;SDS011;65970;50.476;4.840;2024-01-15T07:18:53;6.15;;;4.38;;
77038;SDS011;65970;50.476;4.840;2024-01-15T07:23:53;10.68;;;5.60;;
77038;SDS011;65970;50.476;4.840;2024-01-15T07:28:54;4.20;;;3.15;;
77038;SDS011;65970;50.476;4.840;2024-01-15T07:33:54;6.85;;;3.63;;
77038;SDS011;65970;50.476;4.840;2024-01-15T07:38:55;5.55;;;3.35;;
77038;SDS011;65970;50.476;4.840;2024-01-15T07:43:56;7.65;;;3.92;;
77038;SDS011;65970;50.476;4.840;2024-01-15T07:48:56;3.17;;;1.73;;
77038;SDS011;65970;50.476;4.840;2024-01-15T07:53:57;1.90;;;1.27;;
77038;SDS011;65970;50.476;4.840;2024-01-15T07:58:57;2.17;;;1.50;;
77038;SDS011;65970;50.476;4.840;2024-01-15T08:03:58;2.75;;;1.45;;
77038;SDS011;65970;50.476;4.840;2024-01-15T08:08:58;4.13;;;1.63;;
77038;SDS011;65970;50.476;4.840;2024-01-15T08:13:59;6.85;;;2.17;;
77038;SDS011;65970;50.476;4.840;2024-01-15T08:18:59;4.45;;;2.50;;
77038;SDS011;65970;50.476;4.840;2024-01-15T08:24:00;4.10;;;2.00;;
77038;SDS011;65970;50.476;4.840;2024-01-15T08:29:02;4.88;;;2.92;;
77038;SDS011;65970;50.476;4.840;2024-01-15T08:34:03;4.50;;;2.95;;
77038;SDS011;65970;50.476;4.840;2024-01-15T08:39:03;5.32;;;3.83;;
77038;SDS011;65970;50.476;4.840;2024-01-15T08:44:04;8.82;;;3.17;;
77038;SDS011;65970;50.476;4.840;2024-01-15T08:49:06;8.23;;;3.40;;
77038;SDS011;65970;50.476;4.840;2024-01-15T08:54:07;1.63;;;1.23;;
77038;SDS011;65970;50.476;4.840;2024-01-15T08:59:08;3.58;;;3.08;;
77038;SDS011;65970;50.476;4.840;2024-01-15T09:04:09;8.57;;;2.40;;
77038;SDS011;65970;50.476;4.840;2024-01-15T09:09:09;2.55;;;1.77;;
77038;SDS011;65970;50.476;4.840;2024-01-15T09:14:10;5.60;;;1.83;;
77038;SDS011;65970;50.476;4.840;2024-01-15T09:19:10;3.58;;;1.80;;
77038;SDS011;65970;50.476;4.840;2024-01-15T09:24:11;1.80;;;1.23;;
77038;SDS011;65970;50.476;4.840;2024-01-15T09:29:11;1.77;;;1.15;;
77038;SDS011;65970;50.476;4.840;2024-01-15T09:34:12;3.85;;;1.27;;
77038;SDS011;65970;50.476;4.840;2024-01-15T09:39:12;1.23;;;1.13;;
77038;SDS011;65970;50.476;4.840;2024-01-15T09:44:13;1.23;;;0.90;;
77038;SDS011;65970;50.476;4.840;2024-01-15T09:49:14;1.17;;;0.93;;
77038;SDS011;65970;50.476;4.840;2024-01-15T09:54:18;5.00;;;1.52;;
77038;SDS011;65970;50.476;4.840;2024-01-15T10:04:19;0.45;;;0.45;;
77038;SDS011;65970;50.476;4.840;2024-01-15T10:09:19;2.80;;;0.60;;
77038;SDS011;65970;50.476;4.840;2024-01-15T10:14:20;0.50;;;0.50;;
77038;SDS011;65970;50.476;4.840;2024-01-15T10:19:20;0.70;;;0.70;;
77038;SDS011;65970;50.476;4.840;2024-01-15T10:24:22;1.85;;;0.35;;
77038;SDS011;65970;50.476;4.840;2024-01-15T10:29:24;1.58;;;0.70;;
77038;SDS011;65970;50.476;4.840;2024-01-15T10:34:24;1.02;;;0.80;;
77038;SDS011;65970;50.476;4.840;2024-01-15T10:39:25;1.02;;;0.75;;
77038;SDS011;65970;50.476;4.840;2024-01-15T10:44:25;0.88;;;0.52;;
77038;SDS011;65970;50.476;4.840;2024-01-15T10:49:26;0.52;;;0.45;;
77038;SDS011;65970;50.476;4.840;2024-01-15T10:54:27;2.60;;;0.43;;
77038;SDS011;65970;50.476;4.840;2024-01-15T10:59:27;1.83;;;0.70;;
77038;SDS011;65970;50.476;4.840;2024-01-15T11:04:28;0.77;;;0.65;;
77038;SDS011;65970;50.476;4.840;2024-01-15T11:09:32;0.50;;;0.38;;
77038;SDS011;65970;50.476;4.840;2024-01-15T11:14:34;1.02;;;0.32;;
77038;SDS011;65970;50.476;4.840;2024-01-15T11:24:46;1.65;;;0.88;;
77038;SDS011;65970;50.476;4.840;2024-01-15T11:29:46;1.42;;;0.30;;
77038;SDS011;65970;50.476;4.840;2024-01-15T11:35:02;2.78;;;0.90;;
77038;SDS011;65970;50.476;4.840;2024-01-15T11:40:03;1.70;;;0.70;;
77038;SDS011;65970;50.476;4.840;2024-01-15T11:45:04;0.43;;;0.43;;
77038;SDS011;65970;50.476;4.840;2024-01-15T11:50:05;1.80;;;0.60;;
77038;SDS011;65970;50.476;4.840;2024-01-15T12:00:19;1.57;;;0.80;;
77038;SDS011;65970;50.476;4.840;2024-01-15T12:05:22;0.60;;;0.40;;
77038;SDS011;65970;50.476;4.840;2024-01-15T12:10:23;1.17;;;0.47;;
77038;SDS011;65970;50.476;4.840;2024-01-15T12:15:24;0.47;;;0.45;;
77038;SDS011;65970;50.476;4.840;2024-01-15T12:20:26;1.15;;;0.60;;
77038;SDS011;65970;50.476;4.840;2024-01-15T12:25:27;4.68;;;0.40;;
77038;SDS011;65970;50.476;4.840;2024-01-15T12:30:29;0.55;;;0.52;;
77038;SDS011;65970;50.476;4.840;2024-01-15T12:35:31;0.57;;;0.38;;
77038;SDS011;65970;50.476;4.840;2024-01-15T12:40:33;0.57;;;0.43;;
77038;SDS011;65970;50.476;4.840;2024-01-15T12:45:33;0.65;;;0.63;;
77038;SDS011;65970;50.476;4.840;2024-01-15T12:50:34;2.33;;;0.70;;
77038;SDS011;65970;50.476;4.840;2024-01-15T12:55:35;0.70;;;0.60;;
77038;SDS011;65970;50.476;4.840;2024-01-15T13:00:35;2.85;;;0.50;;
77038;SDS011;65970;50.476;4.840;2024-01-15T13:05:36;3.28;;;1.00;;
77038;SDS011;65970;50.476;4.840;2024-01-15T13:10:37;0.98;;;0.52;;
77038;SDS011;65970;50.476;4.840;2024-01-15T13:15:38;0.68;;;0.68;;
77038;SDS011;65970;50.476;4.840;2024-01-15T13:20:38;0.50;;;0.40;;
77038;SDS011;65970;50.476;4.840;2024-01-15T13:25:39;1.52;;;0.50;;
77038;SDS011;65970;50.476;4.840;2024-01-15T13:30:39;3.40;;;1.00;;
77038;SDS011;65970;50.476;4.840;2024-01-15T13:35:40;1.20;;;0.13;;
77038;SDS011;65970;50.476;4.840;2024-01-15T13:40:40;1.65;;;0.40;;
77038;SDS011;65970;50.476;4.840;2024-01-15T13:45:41;1.55;;;0.60;;
77038;SDS011;65970;50.476;4.840;2024-01-15T13:50:41;0.25;;;0.25;;
77038;SDS011;65970;50.476;4.840;2024-01-15T13:55:42;0.73;;;0.30;;
77038;SDS011;65970;50.476;4.840;2024-01-15T14:00:43;1.15;;;0.52;;
77038;SDS011;65970;50.476;4.840;2024-01-15T14:05:43;0.93;;;0.47;;
77038;SDS011;65970;50.476;4.840;2024-01-15T14:10:44;0.38;;;0.38;;
77038;SDS011;65970;50.476;4.840;2024-01-15T14:15:44;3.13;;;0.43;;
77038;SDS011;65970;50.476;4.840;2024-01-15T14:20:45;0.75;;;0.35;;
77038;SDS011;65970;50.476;4.840;2024-01-15T14:25:46;2.58;;;0.60;;
77038;SDS011;65970;50.476;4.840;2024-01-15T14:30:46;0.20;;;0.20;;
77038;SDS011;65970;50.476;4.840;2024-01-15T14:35:47;0.30;;;0.30;;
77038;SDS011;65970;50.476;4.840;2024-01-15T14:40:47;3.85;;;0.60;;
77038;SDS011;65970;50.476;4.840;2024-01-15T14:45:48;0.55;;;0.43;;
77038;SDS011;65970;50.476;4.840;2024-01-15T14:50:48;5.53;;;0.70;;
77038;SDS011;65970;50.476;4.840;2024-01-15T14:55:49;6.28;;;0.70;;
77038;SDS011;65970;50.476;4.840;2024-01-15T15:00:50;0.90;;;0.50;;
77038;SDS011;65970;50.476;4.840;2024-01-15T15:05:50;0.45;;;0.35;;
77038;SDS011;65970;50.476;4.840;2024-01-15T15:10:51;2.15;;;0.43;;
77038;SDS011;65970;50.476;4.840;2024-01-15T15:15:52;0.82;;;0.20;;
77038;SDS011;65970;50.476;4.840;2024-01-15T15:20:52;1.75;;;0.45;;
77038;SDS011;65970;50.476;4.840;2024-01-15T15:25:53;1.02;;;0.60;;
77038;SDS011;65970;50.476;4.840;2024-01-15T15:30:53;1.58;;;1.15;;
77038;SDS011;65970;50.476;4.840;2024-01-15T15:35:54;2.35;;;0.73;;
77038;SDS011;65970;50.476;4.840;2024-01-15T15:40:55;0.82;;;0.55;;
77038;SDS011;65970;50.476;4.840;2024-01-15T15:45:55;0.77;;;0.60;;
77038;SDS011;65970;50.476;4.840;2024-01-15T15:50:56;3.47;;;0.90;;
77038;SDS011;65970;50.476;4.840;2024-01-15T15:55:57;2.47;;;0.80;;
77038;SDS011;65970;50.476;4.840;2024-01-15T16:00:57;1.25;;;0.50;;
77038;SDS011;65970;50.476;4.840;2024-01-15T16:05:58;1.10;;;0.68;;
77038;SDS011;65970;50.476;4.840;2024-01-15T16:10:59;4.82;;;0.40;;
77038;SDS011;65970;50.476;4.840;2024-01-15T16:15:59;1.88;;;0.70;;
77038;SDS011;65970;50.476;4.840;2024-01-15T16:21:00;1.30;;;0.55;;
77038;SDS011;65970;50.476;4.840;2024-01-15T16:26:01;0.65;;;0.32;;
77038;SDS011;65970;50.476;4.840;2024-01-15T16:31:02;1.27;;;0.60;;
77038;SDS011;65970;50.476;4.840;2024-01-15T16:36:02;0.95;;;0.55;;
77038;SDS011;65970;50.476;4.840;2024-01-15T16:41:03;0.88;;;0.80;;
77038;SDS011;65970;50.476;4.840;2024-01-15T16:46:04;1.48;;;1.00;;
77038;SDS011;65970;50.476;4.840;2024-01-15T16:51:04;2.80;;;1.30;;
77038;SDS011;65970;50.476;4.840;2024-01-15T16:56:05;4.53;;;0.73;;
77038;SDS011;65970;50.476;4.840;2024-01-15T17:01:06;2.10;;;0.77;;
77038;SDS011;65970;50.476;4.840;2024-01-15T17:06:06;0.98;;;0.60;;
77038;SDS011;65970;50.476;4.840;2024-01-15T17:11:07;2.10;;;1.00;;
77038;SDS011;65970;50.476;4.840;2024-01-15T17:16:08;3.80;;;0.65;;
77038;SDS011;65970;50.476;4.840;2024-01-15T17:21:08;1.20;;;0.63;;
77038;SDS011;65970;50.476;4.840;2024-01-15T17:26:09;2.88;;;0.90;;
77038;SDS011;65970;50.476;4.840;2024-01-15T17:31:09;1.63;;;0.75;;
77038;SDS011;65970;50.476;4.840;2024-01-15T17:36:10;0.73;;;0.73;;
77038;SDS011;65970;50.476;4.840;2024-01-15T17:41:10;3.25;;;0.65;;
77038;SDS011;65970;50.476;4.840;2024-01-15T17:46:11;0.47;;;0.43;;
77038;SDS011;65970;50.476;4.840;2024-01-15T17:51:16;2.80;;;0.73;;
77038;SDS011;65970;50.476;4.840;2024-01-15T17:56:17;0.77;;;0.45;;
77038;SDS011;65970;50.476;4.840;2024-01-15T18:01:17;6.95;;;0.93;;
77038;SDS011;65970;50.476;4.840;2024-01-15T18:06:18;3.03;;;1.02;;
77038;SDS011;65970;50.476;4.840;2024-01-15T18:11:19;2.55;;;1.40;;
77038;SDS011;65970;50.476;4.840;2024-01-15T18:16:20;1.73;;;0.75;;
77038;SDS011;65970;50.476;4.840;2024-01-15T18:21:21;2.80;;;0.52;;
77038;SDS011;65970;50.476;4.840;2024-01-15T18:26:22;2.03;;;1.08;;
77038;SDS011;65970;50.476;4.840;2024-01-15T18:31:22;2.58;;;0.88;;
77038;SDS011;65970;50.476;4.840;2024-01-15T18:36:23;0.95;;;0.85;;
77038;SDS011;65970;50.476;4.840;2024-01-15T18:41:26;4.78;;;1.00;;
77038;SDS011;65970;50.476;4.840;2024-01-15T18:46:26;3.88;;;0.93;;
77038;SDS011;65970;50.476;4.840;2024-01-15T18:51:27;1.35;;;0.82;;
77038;SDS011;65970;50.476;4.840;2024-01-15T18:56:27;2.15;;;0.95;;
77038;SDS011;65970;50.476;4.840;2024-01-15T19:01:31;2.85;;;0.93;;
77038;SDS011;65970;50.476;4.840;2024-01-15T19:06:32;1.48;;;0.98;;
77038;SDS011;65970;50.476;4.840;2024-01-15T19:11:33;1.08;;;0.98;;
77038;SDS011;65970;50.476;4.840;2024-01-15T19:16:33;1.65;;;1.15;;
77038;SDS011;65970;50.476;4.840;2024-01-15T19:21:34;2.83;;;1.15;;
77038;SDS011;65970;50.476;4.840;2024-01-15T19:26:34;1.02;;;0.65;;
77038;SDS011;65970;50.476;4.840;2024-01-15T19:31:35;3.80;;;1.10;;
77038;SDS011;65970;50.476;4.840;2024-01-15T19:36:35;0.88;;;0.70;;
77038;SDS011;65970;50.476;4.840;2024-01-15T19:41:37;6.05;;;1.58;;
77038;SDS011;65970;50.476;4.840;2024-01-15T19:46:38;2.85;;;1.25;;
77038;SDS011;65970;50.476;4.840;2024-01-15T19:51:38;2.15;;;1.05;;
77038;SDS011;65970;50.476;4.840;2024-01-15T19:56:39;1.70;;;1.38;;
77038;SDS011;65970;50.476;4.840;2024-01-15T20:01:39;2.72;;;1.38;;
77038;SDS011;65970;50.476;4.840;2024-01-15T20:06:40;4.28;;;1.40;;
77038;SDS011;65970;50.476;4.840;2024-01-15T20:11:40;4.22;;;1.08;;
77038;SDS011;65970;50.476;4.840;2024-01-15T20:16:41;3.70;;;1.30;;
77038;SDS011;65970;50.476;4.840;2024-01-15T20:21:42;1.83;;;1.30;;
77038;SDS011;65970;50.476;4.840;2024-01-15T20:26:42;4.80;;;1.60;;
77038;SDS011;65970;50.476;4.840;2024-01-15T20:31:43;1.38;;;1.15;;
77038;SDS011;65970;50.476;4.840;2024-01-15T20:36:44;1.65;;;1.02;;
77038;SDS011;65970;50.476;4.840;2024-01-15T20:41:44;10.13;;;1.73;;
77038;SDS011;65970;50.476;4.840;2024-01-15T20:46:45;5.50;;;1.75;;
77038;SDS011;65970;50.476;4.840;2024-01-15T20:51:45;3.25;;;1.55;;
77038;SDS011;65970;50.476;4.840;2024-01-15T20:56:46;5.30;;;1.52;;
77038;SDS011;65970;50.476;4.840;2024-01-15T21:01:46;3.70;;;0.93;;
77038;SDS011;65970;50.476;4.840;2024-01-15T21:06:47;1.98;;;1.50;;
77038;SDS011;65970;50.476;4.840;2024-01-15T21:11:48;1.27;;;1.17;;
77038;SDS011;65970;50.476;4.840;2024-01-15T21:16:48;2.55;;;1.83;;
77038;SDS011;65970;50.476;4.840;2024-01-15T21:21:49;2.38;;;1.77;;
77038;SDS011;65970;50.476;4.840;2024-01-15T21:26:49;3.55;;;1.63;;
77038;SDS011;65970;50.476;4.840;2024-01-15T21:31:50;3.70;;;1.00;;
77038;SDS011;65970;50.476;4.840;2024-01-15T21:36:51;3.50;;;1.77;;
77038;SDS011;65970;50.476;4.840;2024-01-15T21:41:51;1.27;;;1.17;;
77038;SDS011;65970;50.476;4.840;2024-01-15T21:46:52;2.92;;;1.20;;
77038;SDS011;65970;50.476;4.840;2024-01-15T21:51:52;5.35;;;1.17;;
77038;SDS011;65970;50.476;4.840;2024-01-15T21:56:53;2.67;;;1.08;;
77038;SDS011;65970;50.476;4.840;2024-01-15T22:01:53;3.80;;;1.42;;
77038;SDS011;65970;50.476;4.840;2024-01-15T22:06:54;4.15;;;1.65;;
77038;SDS011;65970;50.476;4.840;2024-01-15T22:11:54;5.22;;;1.73;;
77038;SDS011;65970;50.476;4.840;2024-01-15T22:16:55;1.27;;;1.17;;
77038;SDS011;65970;50.476;4.840;2024-01-15T22:21:56;3.67;;;2.00;;
77038;SDS011;65970;50.476;4.840;2024-01-15T22:26:56;3.05;;;1.42;;
77038;SDS011;65970;50.476;4.840;2024-01-15T22:31:57;5.28;;;1.60;;
77038;SDS011;65970;50.476;4.840;2024-01-15T22:36:57;3.58;;;1.88;;
77038;SDS011;65970;50.476;4.840;2024-01-15T22:41:58;1.27;;;1.05;;
77038;SDS011;65970;50.476;4.840;2024-01-15T22:46:58;3.95;;;2.03;;
77038;SDS011;65970;50.476;4.840;2024-01-15T22:51:59;2.45;;;1.45;;
77038;SDS011;65970;50.476;4.840;2024-01-15T22:56:59;1.70;;;0.95;;
77038;SDS011;65970;50.476;4.840;2024-01-15T23:02:00;3.90;;;1.27;;
77038;SDS011;65970;50.476;4.840;2024-01-15T23:07:00;1.48;;;1.33;;
77038;SDS011;65970;50.476;4.840;2024-01-15T23:12:01;1.88;;;1.27;;
77038;SDS011;65970;50.476;4.840;2024-01-15T23:17:02;2.67;;;1.42;;
77038;SDS011;65970;50.476;4.840;2024-01-15T23:22:02;2.42;;;1.55;;
77038;SDS011;65970;50.476;4.840;2024-01-15T23:27:03;6.32;;;1.48;;
77038;SDS011;65970;50.476;4.840;2024-01-15T23:32:04;3.78;;;1.42;;
77038;SDS011;65970;50.476;4.840;2024-01-15T23:37:05;4.72;;;1.73;;
77038;SDS011;65970;50.476;4.840;2024-01-15T23:42:05;3.67;;;1.35;;
77038;SDS011;65970;50.476;4.840;2024-01-15T23:47:06;3.10;;;1.45;;
77038;SDS011;65970;50.476;4.840;2024-01-15T23:52:06;1.55;;;1.20;;
77038;SDS011;65970;50.476;4.840;2024-01-15T23:57:07;1.25;;;1.10;;
